createdAt,value
2022-11-13T00:01:48.768Z,2.84
2022-11-13T00:04:34.375Z,2.81
2022-11-13T00:07:19.488Z,2.81
2022-11-13T00:10:05.432Z,2.75
2022-11-13T00:12:50.622Z,2.82
2022-11-13T00:15:36.179Z,2.89
2022-11-13T00:18:21.106Z,2.97
2022-11-13T00:21:27.391Z,2.97
2022-11-13T00:24:12.788Z,2.90
2022-11-13T00:26:57.959Z,2.94
2022-11-13T00:29:43.561Z,2.92
2022-11-13T00:32:28.696Z,2.85
2022-11-13T00:35:14.236Z,2.85
2022-11-13T00:37:59.484Z,2.84
2022-11-13T00:40:44.776Z,2.87
2022-11-13T00:43:30.106Z,2.91
2022-11-13T00:46:15.299Z,2.91
2022-11-13T00:49:03.499Z,2.87
2022-11-13T00:51:48.809Z,2.85
2022-11-13T00:54:34.711Z,2.87
2022-11-13T00:57:20.395Z,2.82
2022-11-13T01:00:06.711Z,2.72
2022-11-13T01:02:51.592Z,2.68
2022-11-13T01:05:42.202Z,2.62
2022-11-13T01:08:27.669Z,2.61
2022-11-13T01:11:16.060Z,2.62
2022-11-13T01:14:01.299Z,2.66
2022-11-13T01:16:46.618Z,2.64
2022-11-13T01:19:31.863Z,2.55
2022-11-13T01:22:17.293Z,2.46
2022-11-13T01:25:02.585Z,2.37
2022-11-13T01:27:47.994Z,2.41
2022-11-13T01:30:33.247Z,2.40
2022-11-13T01:33:18.756Z,2.37
2022-11-13T01:36:08.754Z,2.37
2022-11-13T01:38:54.738Z,2.40
2022-11-13T01:41:40.545Z,2.43
2022-11-13T01:44:25.577Z,2.40
2022-11-13T01:47:11.059Z,2.41
2022-11-13T01:49:59.122Z,2.49
2022-11-13T01:52:44.556Z,2.52
2022-11-13T01:55:30.033Z,2.47
2022-11-13T01:58:16.441Z,2.44
2022-11-13T02:01:01.772Z,2.42
2022-11-13T02:03:47.367Z,2.37
2022-11-13T02:06:52.494Z,2.30
2022-11-13T02:09:43.486Z,2.21
2022-11-13T02:12:34.253Z,2.18
2022-11-13T02:15:23.674Z,2.11
2022-11-13T02:18:09.976Z,2.14
2022-11-13T02:21:06.108Z,2.14
2022-11-13T02:24:02.634Z,2.16
2022-11-13T02:26:51.090Z,2.24
2022-11-13T02:29:36.649Z,2.31
2022-11-13T02:32:21.897Z,2.27
2022-11-13T02:35:07.436Z,2.19
2022-11-13T02:37:53.065Z,2.17
2022-11-13T02:40:39.510Z,2.28
2022-11-13T02:43:24.847Z,2.23
2022-11-13T02:46:10.212Z,2.08
2022-11-13T02:48:55.275Z,1.97
2022-11-13T02:51:40.460Z,1.96
2022-11-13T02:54:25.718Z,1.92
2022-11-13T02:57:11.152Z,1.88
2022-11-13T02:59:56.683Z,1.80
2022-11-13T03:02:42.336Z,1.85
2022-11-13T03:05:27.470Z,1.83
2022-11-13T03:08:12.640Z,1.83
2022-11-13T03:10:57.915Z,1.99
2022-11-13T03:13:43.294Z,2.02
2022-11-13T03:16:28.517Z,2.05
2022-11-13T03:19:14.850Z,2.04
2022-11-13T03:21:59.951Z,1.96
2022-11-13T03:24:45.405Z,1.93
2022-11-13T03:27:32.298Z,1.78
2022-11-13T03:30:18.150Z,1.73
2022-11-13T03:33:03.337Z,1.71
2022-11-13T03:35:48.523Z,1.78
2022-11-13T03:38:34.476Z,1.81
2022-11-13T03:41:21.279Z,1.77
2022-11-13T03:44:06.695Z,1.68
2022-11-13T03:46:52.066Z,1.57
2022-11-13T03:49:37.213Z,1.56
2022-11-13T03:52:22.472Z,1.64
2022-11-13T03:55:08.180Z,1.63
2022-11-13T03:57:53.044Z,1.58
2022-11-13T04:00:40.149Z,1.56
2022-11-13T04:03:25.145Z,1.52
2022-11-13T04:06:10.495Z,1.58
2022-11-13T04:08:55.847Z,1.64
2022-11-13T04:11:41.310Z,1.63
2022-11-13T04:14:26.686Z,1.73
2022-11-13T04:17:11.984Z,1.66
2022-11-13T04:19:57.373Z,1.61
2022-11-13T04:22:43.074Z,1.67
2022-11-13T04:25:28.295Z,1.74
2022-11-13T04:28:13.560Z,1.77
2022-11-13T04:30:58.908Z,1.89
2022-11-13T04:33:44.267Z,1.89
2022-11-13T04:36:29.587Z,1.96
2022-11-13T04:39:14.991Z,1.90
2022-11-13T04:42:19.057Z,1.95
2022-11-13T04:45:04.813Z,1.89
2022-11-13T04:47:51.593Z,1.86
2022-11-13T04:50:36.938Z,1.84
2022-11-13T04:53:22.229Z,1.83
2022-11-13T04:56:07.602Z,1.82
2022-11-13T04:58:52.864Z,1.83
2022-11-13T05:01:38.246Z,1.83
2022-11-13T05:04:23.832Z,1.85
2022-11-13T05:07:08.912Z,1.85
2022-11-13T05:09:54.452Z,1.77
2022-11-13T05:12:39.611Z,1.76
2022-11-13T05:15:24.979Z,1.73
2022-11-13T05:18:10.242Z,1.77
2022-11-13T05:20:55.607Z,1.79
2022-11-13T05:23:41.119Z,1.73
2022-11-13T05:26:26.576Z,1.70
2022-11-13T05:29:11.704Z,1.63
2022-11-13T05:31:56.799Z,1.56
2022-11-13T05:34:42.278Z,1.42
2022-11-13T05:37:29.480Z,1.38
2022-11-13T05:40:14.927Z,1.31
2022-11-13T05:43:00.278Z,1.24
2022-11-13T05:45:45.382Z,1.33
2022-11-13T05:48:31.844Z,1.46
2022-11-13T05:51:20.027Z,1.50
2022-11-13T05:54:06.245Z,1.54
2022-11-13T05:56:51.129Z,1.52
2022-11-13T05:59:36.522Z,1.59
2022-11-13T06:02:21.748Z,1.57
2022-11-13T06:05:07.493Z,1.60
2022-11-13T06:07:52.508Z,1.61
2022-11-13T06:10:37.920Z,1.63
2022-11-13T06:13:23.173Z,1.60
2022-11-13T06:16:17.040Z,1.50
2022-11-13T06:19:04.489Z,1.42
2022-11-13T06:21:49.844Z,1.40
2022-11-13T06:24:34.875Z,1.36
2022-11-13T06:27:20.102Z,1.29
2022-11-13T06:30:06.057Z,1.33
2022-11-13T06:32:54.946Z,1.32
2022-11-13T06:35:40.249Z,1.38
2022-11-13T06:38:25.998Z,1.33
2022-11-13T06:41:14.614Z,1.26
2022-11-13T06:44:03.155Z,1.23
2022-11-13T06:46:48.509Z,1.19
2022-11-13T06:49:33.991Z,1.22
2022-11-13T06:52:19.452Z,1.30
2022-11-13T06:55:05.174Z,1.38
2022-11-13T06:57:50.169Z,1.46
2022-11-13T07:00:37.649Z,1.58
2022-11-13T07:03:26.825Z,1.64
2022-11-13T07:06:14.947Z,1.75
2022-11-13T07:09:00.274Z,1.77
2022-11-13T07:11:45.769Z,1.80
2022-11-13T07:14:31.041Z,1.74
2022-11-13T07:17:16.293Z,1.82
2022-11-13T07:20:01.698Z,1.87
2022-11-13T07:22:46.903Z,1.92
2022-11-13T07:25:32.905Z,2.06
2022-11-13T07:28:18.137Z,2.27
2022-11-13T07:31:03.459Z,2.78
2022-11-13T07:33:50.176Z,3.21
2022-11-13T07:36:35.210Z,3.66
2022-11-13T07:39:20.542Z,4.34
2022-11-13T07:42:05.892Z,4.87
2022-11-13T07:44:55.243Z,5.24
2022-11-13T07:47:41.021Z,5.49
2022-11-13T07:50:28.572Z,5.73
2022-11-13T07:53:14.126Z,6.04
2022-11-13T07:56:03.940Z,6.26
2022-11-13T07:58:49.428Z,6.50
2022-11-13T08:01:34.892Z,6.77
2022-11-13T08:04:20.323Z,6.97
2022-11-13T08:07:05.661Z,7.13
2022-11-13T08:09:51.061Z,7.33
2022-11-13T08:12:36.201Z,7.51
2022-11-13T08:15:21.414Z,7.56
2022-11-13T08:18:07.004Z,7.38
2022-11-13T08:20:51.901Z,7.38
2022-11-13T08:23:37.332Z,7.81
2022-11-13T08:26:22.989Z,7.95
2022-11-13T08:29:08.368Z,8.04
2022-11-13T08:31:53.602Z,7.52
2022-11-13T08:34:38.950Z,7.35
2022-11-13T08:37:24.369Z,7.45
2022-11-13T08:40:10.661Z,7.58
2022-11-13T08:43:03.414Z,7.45
2022-11-13T08:45:48.489Z,7.31
2022-11-13T08:48:34.366Z,7.23
2022-11-13T08:51:19.527Z,6.86
2022-11-13T08:54:05.030Z,6.80
2022-11-13T08:56:54.609Z,6.85
2022-11-13T08:59:41.016Z,6.68
2022-11-13T09:02:27.154Z,6.30
2022-11-13T09:05:12.621Z,6.40
2022-11-13T09:07:59.377Z,6.57
2022-11-13T09:10:44.693Z,6.61
2022-11-13T09:13:30.346Z,6.60
2022-11-13T09:16:15.689Z,6.63
2022-11-13T09:19:00.899Z,6.87
2022-11-13T09:21:47.075Z,6.94
2022-11-13T09:24:32.381Z,6.92
2022-11-13T09:27:18.269Z,7.27
2022-11-13T09:30:03.988Z,7.39
2022-11-13T09:32:52.411Z,7.68
2022-11-13T09:35:37.578Z,7.74
2022-11-13T09:38:23.334Z,7.49
2022-11-13T09:41:19.478Z,7.61
2022-11-13T09:44:43.520Z,7.93
2022-11-13T09:47:33.232Z,7.83
2022-11-13T09:50:25.009Z,8.24
2022-11-13T09:53:13.431Z,8.41
2022-11-13T09:56:12.730Z,8.36
2022-11-13T09:59:02.419Z,8.40
2022-11-13T10:01:50.737Z,8.75
2022-11-13T10:04:53.556Z,8.67
2022-11-13T10:07:51.058Z,8.22
2022-11-13T10:11:13.326Z,8.57
2022-11-13T10:14:03.181Z,8.73
2022-11-13T10:16:56.389Z,8.58
2022-11-13T10:19:57.130Z,8.62
2022-11-13T10:22:56.000Z,8.77
2022-11-13T10:25:42.612Z,9.08
2022-11-13T10:28:49.629Z,9.33
2022-11-13T10:31:44.498Z,8.92
2022-11-13T10:34:29.834Z,8.76
2022-11-13T10:37:31.945Z,8.59
2022-11-13T10:40:28.407Z,8.38
2022-11-13T10:43:18.449Z,8.23
2022-11-13T10:46:06.636Z,8.38
2022-11-13T10:48:52.168Z,8.45
2022-11-13T10:51:37.291Z,8.70
2022-11-13T10:54:28.870Z,8.76
2022-11-13T10:57:30.301Z,9.09
2022-11-13T11:00:23.982Z,9.45
2022-11-13T11:03:22.463Z,9.73
2022-11-13T11:06:08.681Z,10.02
2022-11-13T11:08:53.754Z,9.64
2022-11-13T11:11:57.570Z,9.48
2022-11-13T11:14:59.696Z,9.55
2022-11-13T11:18:05.239Z,9.44
2022-11-13T11:20:57.606Z,9.52
2022-11-13T11:23:49.534Z,9.59
2022-11-13T11:26:47.507Z,9.58
2022-11-13T11:29:41.578Z,9.52
2022-11-13T11:32:37.546Z,9.66
2022-11-13T11:35:28.243Z,9.96
2022-11-13T11:38:41.886Z,10.30
2022-11-13T11:41:36.580Z,10.36
2022-11-13T11:44:42.361Z,10.36
2022-11-13T11:47:27.864Z,10.37
2022-11-13T11:50:15.756Z,10.67
2022-11-13T11:53:10.323Z,10.72
2022-11-13T11:56:31.690Z,10.79
2022-11-13T11:59:31.507Z,10.92
2022-11-13T12:02:28.689Z,10.73
2022-11-13T12:05:35.748Z,11.03
2022-11-13T12:08:51.195Z,10.76
2022-11-13T12:11:47.471Z,10.47
2022-11-13T12:14:40.720Z,10.30
2022-11-13T12:17:39.558Z,10.26
2022-11-13T12:20:39.675Z,10.20
2022-11-13T12:23:34.220Z,10.13
2022-11-13T12:26:37.680Z,10.33
2022-11-13T12:29:45.506Z,10.40
2022-11-13T12:32:37.481Z,10.65
2022-11-13T12:35:25.897Z,10.95
2022-11-13T12:38:47.881Z,11.06
2022-11-13T12:41:49.628Z,10.72
2022-11-13T12:44:46.964Z,10.73
2022-11-13T12:47:35.040Z,10.72
2022-11-13T12:50:31.409Z,10.74
2022-11-13T12:53:27.961Z,10.58
2022-11-13T12:56:26.057Z,11.05
2022-11-13T12:59:43.202Z,11.01
2022-11-13T13:02:55.922Z,10.86
2022-11-13T13:05:47.251Z,10.97
2022-11-13T13:08:57.724Z,11.24
2022-11-13T13:11:57.861Z,11.00
2022-11-13T13:15:05.812Z,10.79
2022-11-13T13:18:11.793Z,10.58
2022-11-13T13:20:59.715Z,10.58
2022-11-13T13:23:50.454Z,10.46
2022-11-13T13:26:45.968Z,10.41
2022-11-13T13:29:33.574Z,10.39
2022-11-13T13:32:46.070Z,10.49
2022-11-13T13:35:47.132Z,10.52
2022-11-13T13:38:35.221Z,10.64
2022-11-13T13:41:51.728Z,10.18
2022-11-13T13:45:00.623Z,10.34
2022-11-13T13:47:49.406Z,10.41
2022-11-13T13:50:41.874Z,10.29
2022-11-13T13:53:33.562Z,10.30
2022-11-13T13:56:21.101Z,10.14
2022-11-13T13:59:14.050Z,9.82
2022-11-13T14:02:02.650Z,9.66
2022-11-13T14:04:50.552Z,9.77
2022-11-13T14:07:35.904Z,9.73
2022-11-13T14:10:23.999Z,9.78
2022-11-13T14:13:13.585Z,9.76
2022-11-13T14:16:07.149Z,9.81
2022-11-13T14:19:03.503Z,9.86
2022-11-13T14:21:54.052Z,9.73
2022-11-13T14:25:00.333Z,9.44
2022-11-13T14:27:45.854Z,9.30
2022-11-13T14:30:31.816Z,9.23
2022-11-13T14:33:23.803Z,9.16
2022-11-13T14:36:09.465Z,9.19
2022-11-13T14:38:55.015Z,9.12
2022-11-13T14:41:49.367Z,8.97
2022-11-13T14:44:36.430Z,8.94
2022-11-13T14:47:21.937Z,8.78
2022-11-13T14:50:27.853Z,8.64
2022-11-13T14:53:13.079Z,8.54
2022-11-13T14:56:02.065Z,8.41
2022-11-13T14:58:47.479Z,8.35
2022-11-13T15:01:32.825Z,8.29
2022-11-13T15:04:17.994Z,8.10
2022-11-13T15:07:27.089Z,7.96
2022-11-13T15:10:15.893Z,7.83
2022-11-13T15:13:01.152Z,7.73
2022-11-13T15:15:46.562Z,7.69
2022-11-13T15:18:32.317Z,7.68
2022-11-13T15:21:18.590Z,7.69
2022-11-13T15:24:03.868Z,7.65
2022-11-13T15:26:49.088Z,7.58
2022-11-13T15:29:34.449Z,7.51
2022-11-13T15:32:19.856Z,7.42
2022-11-13T15:35:07.208Z,7.32
2022-11-13T15:37:52.793Z,7.29
2022-11-13T15:40:39.188Z,7.27
2022-11-13T15:43:24.549Z,7.18
2022-11-13T15:46:18.184Z,7.14
2022-11-13T15:49:03.535Z,7.07
2022-11-13T15:51:49.805Z,6.96
2022-11-13T15:54:37.910Z,6.82
2022-11-13T15:57:25.916Z,6.80
2022-11-13T16:00:18.498Z,6.74
2022-11-13T16:03:11.065Z,6.70
2022-11-13T16:06:00.798Z,6.59
2022-11-13T16:08:46.006Z,6.56
2022-11-13T16:11:33.112Z,6.53
2022-11-13T16:14:23.422Z,6.50
2022-11-13T16:17:22.408Z,6.49
2022-11-13T16:20:12.689Z,6.46
2022-11-13T16:22:58.069Z,6.46
2022-11-13T16:25:48.070Z,6.40
2022-11-13T16:28:37.576Z,6.39
2022-11-13T16:31:37.981Z,6.37
2022-11-13T16:34:23.468Z,6.34
2022-11-13T16:37:28.976Z,6.35
2022-11-13T16:40:19.199Z,6.30
2022-11-13T16:43:04.394Z,6.27
2022-11-13T16:45:49.816Z,6.19
2022-11-13T16:48:35.124Z,6.16
2022-11-13T16:51:20.618Z,6.17
2022-11-13T16:54:05.926Z,6.14
2022-11-13T16:56:51.284Z,6.09
2022-11-13T16:59:36.587Z,6.04
2022-11-13T17:02:21.806Z,6.04
2022-11-13T17:05:10.988Z,6.00
2022-11-13T17:07:59.662Z,5.97
2022-11-13T17:10:44.686Z,5.91
2022-11-13T17:13:30.329Z,5.71
2022-11-13T17:16:16.077Z,5.59
2022-11-13T17:19:01.907Z,5.47
2022-11-13T17:21:47.340Z,5.41
2022-11-13T17:24:32.515Z,5.41
2022-11-13T17:27:18.199Z,5.41
2022-11-13T17:30:04.121Z,5.43
2022-11-13T17:32:49.400Z,5.34
2022-11-13T17:35:35.065Z,5.35
2022-11-13T17:38:20.274Z,5.31
2022-11-13T17:41:11.500Z,5.27
2022-11-13T17:44:01.073Z,5.25
2022-11-13T17:46:48.092Z,5.23
2022-11-13T17:49:33.260Z,5.16
2022-11-13T17:52:18.727Z,5.12
2022-11-13T17:55:06.252Z,5.08
2022-11-13T17:57:51.996Z,4.98
2022-11-13T18:00:36.893Z,4.95
2022-11-13T18:03:22.145Z,4.93
2022-11-13T18:06:11.926Z,4.94
2022-11-13T18:08:58.473Z,4.93
2022-11-13T18:11:43.745Z,4.83
2022-11-13T18:14:29.137Z,4.85
2022-11-13T18:17:14.556Z,4.94
2022-11-13T18:20:02.076Z,4.98
2022-11-13T18:22:47.649Z,4.93
2022-11-13T18:25:39.507Z,4.95
2022-11-13T18:28:25.267Z,4.91
2022-11-13T18:31:16.962Z,4.90
2022-11-13T18:34:04.928Z,4.90
2022-11-13T18:36:50.689Z,4.92
2022-11-13T18:39:35.822Z,4.99
2022-11-13T18:42:21.189Z,5.07
2022-11-13T18:45:07.273Z,4.96
2022-11-13T18:47:52.197Z,4.95
2022-11-13T18:50:37.649Z,4.96
2022-11-13T18:53:23.036Z,4.95
2022-11-13T18:56:12.827Z,4.95
2022-11-13T18:58:59.437Z,4.76
2022-11-13T19:01:45.573Z,4.39
2022-11-13T19:04:30.749Z,4.17
2022-11-13T19:07:16.179Z,3.97
2022-11-13T19:10:02.333Z,3.66
2022-11-13T19:12:47.691Z,3.47
2022-11-13T19:15:36.202Z,3.55
2022-11-13T19:18:21.359Z,3.74
2022-11-13T19:21:12.438Z,3.85
2022-11-13T19:23:59.789Z,3.86
2022-11-13T19:26:45.936Z,3.85
2022-11-13T19:29:31.526Z,3.78
2022-11-13T19:32:16.955Z,3.68
2022-11-13T19:35:02.121Z,3.53
2022-11-13T19:37:47.431Z,3.43
2022-11-13T19:40:32.681Z,3.37
2022-11-13T19:43:18.370Z,3.34
2022-11-13T19:46:12.865Z,3.34
2022-11-13T19:48:58.053Z,3.35
2022-11-13T19:51:43.257Z,3.41
2022-11-13T19:54:28.609Z,3.41
2022-11-13T19:57:14.093Z,3.51
2022-11-13T19:59:59.288Z,3.60
2022-11-13T20:02:44.775Z,3.64
2022-11-13T20:05:30.298Z,3.63
2022-11-13T20:08:15.584Z,3.68
2022-11-13T20:11:03.343Z,3.83
2022-11-13T20:13:48.449Z,3.83
2022-11-13T20:16:33.771Z,3.83
2022-11-13T20:19:19.362Z,3.80
2022-11-13T20:22:04.739Z,3.77
2022-11-13T20:24:50.023Z,3.80
2022-11-13T20:27:37.421Z,3.78
2022-11-13T20:30:23.110Z,3.77
2022-11-13T20:33:08.576Z,3.84
2022-11-13T20:35:54.720Z,3.83
2022-11-13T20:38:41.194Z,3.81
2022-11-13T20:41:26.668Z,3.74
2022-11-13T20:44:12.473Z,3.69
2022-11-13T20:46:57.884Z,3.66
2022-11-13T20:49:43.151Z,3.55
2022-11-13T20:52:28.434Z,3.48
2022-11-13T20:55:13.515Z,3.47
2022-11-13T20:57:58.789Z,3.44
2022-11-13T21:00:44.233Z,3.46
2022-11-13T21:03:29.494Z,3.53
2022-11-13T21:06:21.392Z,3.51
2022-11-13T21:09:07.005Z,3.44
2022-11-13T21:11:52.241Z,3.49
2022-11-13T21:14:37.652Z,3.44
2022-11-13T21:17:22.947Z,3.45
2022-11-13T21:20:08.970Z,3.48
2022-11-13T21:22:54.413Z,3.51
2022-11-13T21:25:39.660Z,3.43
2022-11-13T21:28:29.290Z,3.49
2022-11-13T21:31:19.804Z,3.51
2022-11-13T21:34:04.792Z,3.40
2022-11-13T21:36:51.748Z,3.35
2022-11-13T21:39:37.083Z,3.35
2022-11-13T21:42:22.111Z,3.35
2022-11-13T21:45:08.079Z,3.40
2022-11-13T21:47:53.727Z,3.44
2022-11-13T21:50:39.320Z,3.47
2022-11-13T21:53:24.683Z,3.44
2022-11-13T21:56:15.401Z,3.47
2022-11-13T21:59:01.622Z,3.47
2022-11-13T22:01:47.244Z,3.51
2022-11-13T22:04:32.769Z,3.52
2022-11-13T22:07:18.131Z,3.57
2022-11-13T22:10:08.152Z,3.50
2022-11-13T22:12:53.905Z,3.46
2022-11-13T22:15:38.820Z,3.48
2022-11-13T22:18:24.757Z,3.44
2022-11-13T22:21:12.249Z,3.37
2022-11-13T22:23:58.263Z,3.37
2022-11-13T22:26:48.496Z,3.33
2022-11-13T22:29:33.516Z,3.35
2022-11-13T22:32:18.767Z,3.41
2022-11-13T22:35:04.346Z,3.40
2022-11-13T22:37:49.344Z,3.39
2022-11-13T22:40:34.670Z,3.37
2022-11-13T22:43:20.310Z,3.37
2022-11-13T22:46:08.116Z,3.41
2022-11-13T22:48:55.417Z,3.53
2022-11-13T22:51:41.700Z,3.48
2022-11-13T22:54:26.884Z,3.48
2022-11-13T22:57:12.813Z,3.41
2022-11-13T22:59:57.861Z,3.41
2022-11-13T23:02:47.230Z,3.39
2022-11-13T23:05:35.831Z,3.39
2022-11-13T23:08:21.428Z,3.38
2022-11-13T23:11:08.369Z,3.34
2022-11-13T23:13:56.634Z,3.38
2022-11-13T23:16:42.956Z,3.36
2022-11-13T23:19:28.235Z,3.40
2022-11-13T23:22:13.646Z,3.43
2022-11-13T23:24:58.947Z,3.31
2022-11-13T23:27:44.195Z,3.27
2022-11-13T23:30:30.157Z,3.19
2022-11-13T23:33:15.965Z,3.06
2022-11-13T23:36:01.655Z,3.08
2022-11-13T23:38:47.537Z,3.01
2022-11-13T23:41:32.778Z,2.86
2022-11-13T23:44:18.012Z,2.87
2022-11-13T23:47:03.853Z,2.81
2022-11-13T23:49:49.317Z,2.81
2022-11-13T23:52:34.452Z,2.81
2022-11-13T23:55:21.388Z,2.84
2022-11-13T23:58:11.014Z,2.84
